createdAt,value
2019-02-19T00:04:56.466Z,65.40
2019-02-19T00:10:11.039Z,66.80
2019-02-19T00:15:25.832Z,67.20
2019-02-19T00:20:40.246Z,68.50
2019-02-19T00:25:54.971Z,69.10
2019-02-19T00:31:09.460Z,69.30
2019-02-19T00:36:25.157Z,70.40
2019-02-19T00:41:39.916Z,71.50
2019-02-19T00:46:54.424Z,72.60
2019-02-19T00:52:09.244Z,73.20
2019-02-19T00:57:23.932Z,73.80
2019-02-19T01:02:38.468Z,75.10
2019-02-19T01:07:53.187Z,75.40
2019-02-19T01:13:09.029Z,77.60
2019-02-19T01:18:23.254Z,76.90
2019-02-19T01:23:38.026Z,77.40
2019-02-19T01:28:52.207Z,78.70
2019-02-19T01:34:06.578Z,80.30
2019-02-19T01:39:21.028Z,79.40
2019-02-19T01:44:35.870Z,79.60
2019-02-19T01:49:50.362Z,80.40
2019-02-19T01:55:05.210Z,80.80
2019-02-19T02:00:19.728Z,80.70
2019-02-19T02:05:34.226Z,81.60
2019-02-19T02:10:48.999Z,82.20
2019-02-19T02:16:03.588Z,83.70
2019-02-19T02:21:18.441Z,83.90
2019-02-19T02:26:32.971Z,84.70
2019-02-19T02:31:47.210Z,85.30
2019-02-19T02:37:01.556Z,85.80
2019-02-19T02:42:16.039Z,86.30
2019-02-19T02:47:30.344Z,86.90
2019-02-19T02:52:44.996Z,88.70
2019-02-19T02:57:59.303Z,90.40
2019-02-19T03:03:14.094Z,89.80
2019-02-19T03:08:28.642Z,90.00
2019-02-19T03:13:43.339Z,90.20
2019-02-19T03:18:57.838Z,89.60
2019-02-19T03:24:11.999Z,90.10
2019-02-19T03:29:26.739Z,90.20
2019-02-19T03:34:41.327Z,90.50
2019-02-19T03:39:55.791Z,90.70
2019-02-19T03:45:11.589Z,91.10
2019-02-19T03:50:26.105Z,91.40
2019-02-19T03:55:40.636Z,91.50
2019-02-19T04:00:56.526Z,91.50
2019-02-19T04:06:11.062Z,91.90
2019-02-19T04:11:25.454Z,92.40
2019-02-19T04:16:40.162Z,93.00
2019-02-19T04:21:55.145Z,92.90
2019-02-19T04:27:09.415Z,93.30
2019-02-19T04:32:24.034Z,93.90
2019-02-19T04:37:38.568Z,93.90
2019-02-19T04:42:53.042Z,94.00
2019-02-19T04:48:07.633Z,93.60
2019-02-19T04:53:22.225Z,93.60
2019-02-19T04:58:36.823Z,93.60
2019-02-19T05:03:52.333Z,94.30
2019-02-19T05:09:06.796Z,94.50
2019-02-19T05:14:21.603Z,95.50
2019-02-19T05:19:36.141Z,96.10
2019-02-19T05:24:50.525Z,97.30
2019-02-19T05:30:05.270Z,96.40
2019-02-19T05:35:20.213Z,96.40
2019-02-19T05:40:34.865Z,95.60
2019-02-19T05:45:49.400Z,95.60
2019-02-19T05:51:04.006Z,95.60
2019-02-19T05:56:18.594Z,95.80
2019-02-19T06:01:34.185Z,96.10
2019-02-19T06:06:48.852Z,97.30
2019-02-19T06:12:03.579Z,97.70
2019-02-19T06:17:18.037Z,98.40
2019-02-19T06:22:32.486Z,98.60
2019-02-19T06:27:49.434Z,98.60
2019-02-19T06:33:03.863Z,99.30
2019-02-19T06:38:18.402Z,98.90
2019-02-19T06:43:35.522Z,99.40
2019-02-19T06:48:50.114Z,98.70
2019-02-19T06:54:04.610Z,98.70
2019-02-19T06:59:19.311Z,98.80
2019-02-19T07:04:40.812Z,99.10
2019-02-19T07:09:55.034Z,99.30
2019-02-19T07:15:10.002Z,99.70
2019-02-19T07:20:24.262Z,99.90
2019-02-19T07:25:38.750Z,99.90
2019-02-19T07:30:53.363Z,99.90
2019-02-19T07:36:08.167Z,99.90
2019-02-19T07:41:22.803Z,99.90
2019-02-19T07:46:37.218Z,99.90
2019-02-19T07:51:51.844Z,99.90
2019-02-19T07:57:06.557Z,99.90
2019-02-19T08:02:21.147Z,99.90
2019-02-19T08:07:35.301Z,99.90
2019-02-19T08:12:50.130Z,99.90
2019-02-19T08:18:16.729Z,99.90
2019-02-19T08:23:34.276Z,99.90
2019-02-19T08:28:48.625Z,99.90
2019-02-19T08:34:03.534Z,99.90
2019-02-19T08:39:18.158Z,99.90
2019-02-19T08:44:32.782Z,99.90
2019-02-19T08:49:47.095Z,99.90
2019-02-19T08:55:01.858Z,99.90
2019-02-19T09:00:16.311Z,99.90
2019-02-19T09:05:31.093Z,99.90
2019-02-19T09:10:45.674Z,99.90
2019-02-19T09:15:59.990Z,99.90
2019-02-19T09:21:14.847Z,99.90
2019-02-19T09:26:29.455Z,99.90
2019-02-19T09:31:43.664Z,99.90
2019-02-19T09:36:58.476Z,99.90
2019-02-19T09:42:12.864Z,99.70
2019-02-19T09:47:27.368Z,99.20
2019-02-19T09:52:41.885Z,99.40
2019-02-19T09:57:56.000Z,98.30
2019-02-19T10:03:10.428Z,97.70
2019-02-19T10:08:24.957Z,97.60
2019-02-19T10:13:39.929Z,97.70
2019-02-19T10:18:54.671Z,98.10
2019-02-19T10:24:09.332Z,98.00
2019-02-19T10:29:23.884Z,98.30
2019-02-19T10:34:38.554Z,97.30
2019-02-19T10:39:52.829Z,97.00
2019-02-19T10:45:08.523Z,96.20
2019-02-19T10:50:23.535Z,95.70
2019-02-19T10:55:37.935Z,95.30
2019-02-19T11:00:52.078Z,95.20
2019-02-19T11:06:06.694Z,95.00
2019-02-19T11:11:21.636Z,94.40
2019-02-19T11:16:36.296Z,94.00
2019-02-19T11:21:50.659Z,93.40
2019-02-19T11:27:05.591Z,92.70
2019-02-19T11:32:20.400Z,92.30
2019-02-19T11:37:34.664Z,90.90
2019-02-19T11:42:49.311Z,88.10
2019-02-19T11:48:03.600Z,85.80
2019-02-19T11:53:18.201Z,82.40
2019-02-19T11:58:32.523Z,79.60
2019-02-19T12:03:46.608Z,78.30
2019-02-19T12:09:00.997Z,76.80
2019-02-19T12:14:17.000Z,75.10
2019-02-19T12:19:31.542Z,73.80
2019-02-19T12:24:46.201Z,73.70
2019-02-19T12:30:00.905Z,73.80
2019-02-19T12:35:15.545Z,74.80
2019-02-19T12:40:29.866Z,75.80
2019-02-19T12:45:44.534Z,75.90
2019-02-19T12:50:59.213Z,75.60
2019-02-19T12:56:13.872Z,76.70
2019-02-19T13:01:28.526Z,78.20
2019-02-19T13:06:42.577Z,80.00
2019-02-19T13:11:57.402Z,81.30
2019-02-19T13:17:11.732Z,82.70
2019-02-19T13:22:27.961Z,83.80
2019-02-19T13:27:42.556Z,85.40
2019-02-19T13:32:56.855Z,86.70
2019-02-19T13:38:11.426Z,88.00
2019-02-19T13:43:25.748Z,89.50
2019-02-19T13:48:40.124Z,90.30
2019-02-19T13:54:16.376Z,90.80
2019-02-19T13:59:33.138Z,91.70
2019-02-19T14:04:47.889Z,91.90
2019-02-19T14:10:02.356Z,91.70
2019-02-19T14:15:39.147Z,91.60
2019-02-19T14:21:21.681Z,91.60
2019-02-19T14:26:47.750Z,91.70
2019-02-19T14:32:24.549Z,91.70
2019-02-19T14:37:56.242Z,91.70
2019-02-19T14:43:20.383Z,91.70
2019-02-19T14:48:52.437Z,92.10
2019-02-19T14:54:32.316Z,92.70
2019-02-19T15:00:04.342Z,92.80
2019-02-19T15:05:57.231Z,93.20
2019-02-19T15:11:26.487Z,93.50
2019-02-19T15:17:02.328Z,93.40
2019-02-19T15:22:48.207Z,93.60
2019-02-19T15:28:37.019Z,93.40
2019-02-19T15:34:08.845Z,93.30
2019-02-19T15:39:46.289Z,93.60
2019-02-19T15:45:19.721Z,94.40
2019-02-19T15:50:51.591Z,94.50
2019-02-19T15:56:25.356Z,94.40
2019-02-19T16:01:58.927Z,94.30
2019-02-19T16:07:33.298Z,94.50
2019-02-19T16:13:04.896Z,95.10
2019-02-19T16:18:32.831Z,95.00
2019-02-19T16:24:04.994Z,95.10
2019-02-19T16:29:36.705Z,95.10
2019-02-19T16:35:15.817Z,95.20
2019-02-19T16:40:51.491Z,95.70
2019-02-19T16:46:20.697Z,96.20
2019-02-19T16:51:52.722Z,96.20
2019-02-19T16:57:26.332Z,96.00
2019-02-19T17:03:02.475Z,96.30
2019-02-19T17:08:47.920Z,96.70
2019-02-19T17:14:20.137Z,97.20
2019-02-19T17:19:54.954Z,97.00
2019-02-19T17:25:42.147Z,97.30
2019-02-19T17:31:23.764Z,97.60
2019-02-19T17:37:00.684Z,97.90
2019-02-19T17:42:29.578Z,98.40
2019-02-19T17:47:55.764Z,99.10
2019-02-19T17:53:34.990Z,98.90
2019-02-19T17:58:57.698Z,99.80
2019-02-19T18:04:34.226Z,99.80
2019-02-19T18:10:07.124Z,99.60
2019-02-19T18:15:35.930Z,99.70
2019-02-19T18:20:50.986Z,99.90
2019-02-19T18:26:05.273Z,99.70
2019-02-19T18:31:20.023Z,99.90
2019-02-19T18:36:35.039Z,99.80
2019-02-19T18:41:49.461Z,99.90
2019-02-19T18:47:09.016Z,99.90
2019-02-19T18:52:23.545Z,99.90
2019-02-19T18:57:38.190Z,99.90
2019-02-19T19:02:52.537Z,99.90
2019-02-19T19:08:08.288Z,99.90
2019-02-19T19:13:22.632Z,99.90
2019-02-19T19:18:38.588Z,99.90
2019-02-19T19:23:53.220Z,99.90
2019-02-19T19:29:07.946Z,99.90
2019-02-19T19:34:22.767Z,99.90
2019-02-19T19:39:37.577Z,99.90
2019-02-19T19:44:52.034Z,99.90
2019-02-19T19:50:07.007Z,99.90
2019-02-19T19:55:21.176Z,99.90
2019-02-19T20:00:35.498Z,99.90
2019-02-19T20:05:50.428Z,99.90
2019-02-19T20:11:05.427Z,99.90
2019-02-19T20:16:20.018Z,99.90
2019-02-19T20:21:34.174Z,99.90
2019-02-19T20:26:48.834Z,99.90
2019-02-19T20:32:03.720Z,99.90
2019-02-19T20:37:18.330Z,99.90
2019-02-19T20:42:33.195Z,99.90
2019-02-19T20:47:47.832Z,99.90
2019-02-19T20:53:04.782Z,99.90
2019-02-19T20:58:19.207Z,99.90
2019-02-19T21:03:33.818Z,99.90
2019-02-19T21:08:48.251Z,99.90
2019-02-19T21:14:02.779Z,99.90
2019-02-19T21:19:18.688Z,99.90
2019-02-19T21:24:33.137Z,99.90
2019-02-19T21:29:48.472Z,99.90
2019-02-19T21:35:03.249Z,99.90
2019-02-19T21:40:17.814Z,99.90
2019-02-19T21:45:32.336Z,99.90
2019-02-19T21:50:47.029Z,99.90
2019-02-19T21:56:01.849Z,99.90
2019-02-19T22:01:17.684Z,99.90
2019-02-19T22:06:32.336Z,99.90
2019-02-19T22:11:46.734Z,99.90
2019-02-19T22:17:01.308Z,99.90
2019-02-19T22:22:24.184Z,99.90
2019-02-19T22:27:38.914Z,99.90
2019-02-19T22:32:53.497Z,99.90
2019-02-19T22:38:07.826Z,99.90
2019-02-19T22:43:22.567Z,99.90
2019-02-19T22:48:37.522Z,99.90
2019-02-19T22:53:59.661Z,99.90
2019-02-19T22:59:14.073Z,99.90
2019-02-19T23:04:29.203Z,99.90
2019-02-19T23:09:43.394Z,99.90
2019-02-19T23:14:57.914Z,99.90
2019-02-19T23:20:12.747Z,99.90
2019-02-19T23:25:27.389Z,99.90
2019-02-19T23:30:42.285Z,99.90
2019-02-19T23:36:19.476Z,99.90
2019-02-19T23:41:33.616Z,99.90
2019-02-19T23:46:48.173Z,99.90
2019-02-19T23:52:02.953Z,99.90
2019-02-19T23:57:17.245Z,99.90
